Accueil
METAR-TAF:

METAR-TAF

Aéroports :

Mendoza, Argentine

latitude: 32-50S, longitude: 068-47W, altitude: 705 m

Observation

Le bulletin a été fait il y a 48 minutes, à 01:00 UTC
Vent 11 kt de sud-est
Température 20°C
Humidité 46%
Pression 1018 hPa
Visibilité 10 km ou plus
Nuages épars à une hauteur de 4500 ft

METAR: SAME 260100Z 14011KT 9999 SCT045 20/08 Q1018

Heure: 22:48 (01:48 UTC)

Prévision

Le bulletin a été fait il y a 2 heures et 48 minutes, à 23:00 UTC
Prévision valable du 26 à 00 UTC au 26 à 24 UTC
Vent 5 kt de sud/sud-ouest
Visibilité 10 km ou plus
Nuages épars à une hauteur de 4000 ft
Nuages épars à une hauteur de 8000 ft
Probabilité 30% :
Temporairement
du 26 à 11 UTC au 26 à 14 UTC
Visibilité: 6000 m

TAF: SAME 252300Z 2600/2624 20005KT 9999 SCT040 SCT080 TN06/2610Z TX18/2620Z PROB30 TEMPO 2611/2614 6000 HZFU

Observations et prévisions météorologiques de plus de 4000 aéroports (messages METAR et TAF).

Les stations disponibles sont représentées par des disques jaunes et rouges sur la carte.

Passer la souris dessus pour voir le nom de la station.

Cliquer dessus pour voir les observations et prévisions météorologiques.

Pour changer de carte: cliquez sur les boutons verts avec une croix noire pour zoomer, sur le bouton vert avec un tiret pour effectuer un zoom arrière, ou sur les flèches vertes pour les cartes adjacentes.


METAR-TAF: